createdAt,value
2019-04-14T00:01:41.279Z,8.28
2019-04-14T00:04:14.016Z,7.92
2019-04-14T00:06:44.116Z,8.00
2019-04-14T00:09:14.436Z,8.15
2019-04-14T00:11:42.042Z,7.83
2019-04-14T00:14:10.219Z,7.80
2019-04-14T00:16:38.411Z,7.97
2019-04-14T00:19:06.576Z,8.63
2019-04-14T00:21:34.788Z,7.90
2019-04-14T00:24:03.110Z,7.95
2019-04-14T00:26:33.820Z,7.90
2019-04-14T00:29:02.705Z,7.90
2019-04-14T00:31:31.002Z,7.75
2019-04-14T00:34:00.815Z,7.87
2019-04-14T00:36:46.005Z,9.63
2019-04-14T00:39:22.665Z,8.90
2019-04-14T00:42:06.226Z,8.00
2019-04-14T00:44:39.152Z,8.35
2019-04-14T00:47:11.868Z,8.33
2019-04-14T00:49:40.114Z,7.90
2019-04-14T00:52:08.341Z,8.73
2019-04-14T00:54:37.043Z,8.23
2019-04-14T00:57:05.324Z,8.25
2019-04-14T00:59:33.452Z,7.70
2019-04-14T01:02:01.702Z,7.58
2019-04-14T01:04:29.810Z,7.60
2019-04-14T01:06:57.942Z,7.60
2019-04-14T01:09:26.166Z,7.30
2019-04-14T01:11:55.297Z,7.72
2019-04-14T01:14:23.517Z,7.35
2019-04-14T01:16:51.824Z,7.45
2019-04-14T01:19:20.023Z,7.95
2019-04-14T01:21:48.423Z,7.60
2019-04-14T01:24:16.532Z,7.90
2019-04-14T01:26:44.672Z,7.28
2019-04-14T01:29:12.789Z,7.28
2019-04-14T01:31:40.986Z,7.45
2019-04-14T01:34:09.094Z,7.17
2019-04-14T01:36:37.232Z,7.30
2019-04-14T01:39:06.928Z,7.58
2019-04-14T01:41:35.357Z,7.47
2019-04-14T01:44:04.651Z,7.30
2019-04-14T01:46:34.361Z,7.15
2019-04-14T01:49:02.922Z,7.75
2019-04-14T01:51:50.619Z,6.90
2019-04-14T01:54:36.423Z,7.37
2019-04-14T01:57:18.467Z,7.33
2019-04-14T01:59:46.727Z,7.03
2019-04-14T02:02:22.733Z,7.35
2019-04-14T02:04:50.972Z,7.15
2019-04-14T02:07:19.154Z,8.23
2019-04-14T02:09:47.332Z,7.58
2019-04-14T02:12:15.516Z,7.40
2019-04-14T02:14:45.067Z,7.10
2019-04-14T02:17:13.292Z,6.87
2019-04-14T02:19:41.681Z,7.30
2019-04-14T02:22:10.110Z,7.30
2019-04-14T02:24:39.484Z,7.20
2019-04-14T02:27:07.785Z,7.37
2019-04-14T02:29:36.267Z,7.15
2019-04-14T02:32:33.769Z,7.03
2019-04-14T02:35:04.500Z,7.03
2019-04-14T02:40:00.999Z,7.25
2019-04-14T02:42:36.842Z,6.78
2019-04-14T02:45:00.067Z,6.95
2019-04-14T02:50:02.710Z,6.90
2019-04-14T02:52:28.409Z,7.08
2019-04-14T02:54:59.909Z,6.97
2019-04-14T02:57:30.382Z,7.30
2019-04-14T02:59:59.028Z,7.20
2019-04-14T03:02:30.217Z,6.95
2019-04-14T03:05:13.259Z,6.72
2019-04-14T03:07:28.185Z,6.80
2019-04-14T03:10:29.873Z,7.10
2019-04-14T03:21:09.234Z,6.35
2019-04-14T03:22:42.266Z,6.70
2019-04-14T03:25:21.152Z,6.85
2019-04-14T03:27:58.633Z,7.03
2019-04-14T03:33:38.215Z,7.72
2019-04-14T03:36:05.016Z,7.05
2019-04-14T03:38:18.320Z,6.80
2019-04-14T03:40:45.847Z,6.85
2019-04-14T03:43:22.688Z,7.03
2019-04-14T03:50:50.204Z,6.28
2019-04-14T03:53:17.508Z,7.00
2019-04-14T03:55:43.239Z,6.58
2019-04-14T03:58:08.214Z,6.25
2019-04-14T04:00:39.978Z,6.50
2019-04-14T04:03:08.476Z,6.72
2019-04-14T04:05:37.341Z,6.90
2019-04-14T04:08:05.642Z,6.72
2019-04-14T04:10:35.705Z,6.50
2019-04-14T04:13:04.130Z,6.50
2019-04-14T04:15:34.293Z,5.95
2019-04-14T04:18:04.820Z,6.33
2019-04-14T04:20:52.724Z,6.50
2019-04-14T04:23:24.999Z,6.60
2019-04-14T04:25:57.393Z,6.55
2019-04-14T04:28:29.884Z,6.58
2019-04-14T04:31:00.202Z,6.15
2019-04-14T04:33:37.222Z,6.35
2019-04-14T04:36:13.935Z,5.83
2019-04-14T04:38:44.284Z,6.12
2019-04-14T04:41:12.595Z,6.22
2019-04-14T04:43:40.900Z,6.03
2019-04-14T04:46:09.190Z,6.15
2019-04-14T04:48:37.478Z,5.60
2019-04-14T04:51:05.655Z,6.35
2019-04-14T04:53:33.779Z,6.12
2019-04-14T04:56:01.901Z,5.95
2019-04-14T04:58:30.505Z,5.80
2019-04-14T05:00:59.596Z,5.80
2019-04-14T05:03:27.961Z,6.22
2019-04-14T05:06:15.321Z,6.20
2019-04-14T05:08:45.545Z,6.00
2019-04-14T05:11:16.464Z,6.30
2019-04-14T05:13:46.812Z,8.15
2019-04-14T05:16:15.203Z,6.62
2019-04-14T05:18:44.120Z,6.28
2019-04-14T05:21:12.738Z,5.85
2019-04-14T05:23:41.248Z,6.15
2019-04-14T05:26:09.369Z,6.25
2019-04-14T05:28:37.546Z,5.97
2019-04-14T05:31:05.688Z,5.62
2019-04-14T05:33:33.907Z,5.92
2019-04-14T05:36:02.169Z,6.00
2019-04-14T05:38:32.224Z,5.80
2019-04-14T05:41:00.425Z,5.60
2019-04-14T05:43:38.645Z,6.00
2019-04-14T05:45:59.093Z,5.85
2019-04-14T05:48:27.617Z,5.90
2019-04-14T05:50:55.820Z,6.00
2019-04-14T05:53:24.124Z,5.50
2019-04-14T05:55:52.592Z,5.60
2019-04-14T05:58:20.772Z,5.65
2019-04-14T06:00:51.379Z,5.83
2019-04-14T06:03:19.103Z,5.90
2019-04-14T06:05:47.357Z,6.00
2019-04-14T06:08:15.523Z,6.00
2019-04-14T06:10:43.636Z,5.40
2019-04-14T06:13:11.990Z,5.58
2019-04-14T06:15:40.324Z,5.28
2019-04-14T06:18:08.523Z,5.30
2019-04-14T06:20:36.633Z,5.55
2019-04-14T06:23:04.790Z,5.22
2019-04-14T06:25:32.960Z,5.78
2019-04-14T06:28:01.078Z,5.72
2019-04-14T06:30:41.436Z,5.55
2019-04-14T06:33:14.359Z,5.30
2019-04-14T06:38:15.911Z,5.58
2019-04-14T06:40:48.376Z,5.95
2019-04-14T06:43:16.514Z,5.65
2019-04-14T06:45:44.621Z,5.62
2019-04-14T06:48:12.746Z,5.40
2019-04-14T06:50:40.864Z,7.67
2019-04-14T06:53:09.059Z,7.75
2019-04-14T06:55:37.200Z,6.37
2019-04-14T06:58:05.458Z,6.83
2019-04-14T07:00:33.640Z,6.33
2019-04-14T07:03:01.768Z,6.10
2019-04-14T07:05:29.884Z,6.30
2019-04-14T07:07:58.136Z,6.45
2019-04-14T07:10:26.246Z,6.30
2019-04-14T07:12:54.458Z,6.80
2019-04-14T07:15:22.559Z,6.65
2019-04-14T07:17:50.711Z,6.60
2019-04-14T07:20:18.835Z,6.58
2019-04-14T07:22:46.987Z,6.95
2019-04-14T07:25:15.078Z,7.00
2019-04-14T07:27:43.209Z,6.55
2019-04-14T07:30:29.732Z,7.17
2019-04-14T07:33:02.731Z,6.47
2019-04-14T07:35:32.498Z,6.70
2019-04-14T07:38:07.933Z,7.00
2019-04-14T07:40:43.427Z,6.30
2019-04-14T07:43:18.782Z,7.20
2019-04-14T07:46:04.783Z,7.65
2019-04-14T07:48:34.558Z,7.03
2019-04-14T07:51:13.405Z,6.60
2019-04-14T07:53:49.022Z,7.58
2019-04-14T07:56:28.057Z,6.97
2019-04-14T07:59:04.002Z,6.60
2019-04-14T08:01:50.314Z,6.83
2019-04-14T08:04:20.118Z,7.17
2019-04-14T08:06:52.964Z,7.20
2019-04-14T08:09:21.105Z,7.08
2019-04-14T08:11:49.343Z,6.90
2019-04-14T08:14:17.482Z,8.28
2019-04-14T08:16:45.595Z,7.72
2019-04-14T08:19:13.811Z,7.95
2019-04-14T08:21:41.907Z,8.13
2019-04-14T08:24:10.038Z,24.85
2019-04-14T08:26:38.147Z,24.95
2019-04-14T08:29:06.316Z,20.08
2019-04-14T08:31:34.444Z,17.15
2019-04-14T08:34:02.551Z,14.28
2019-04-14T08:36:33.230Z,13.78
2019-04-14T08:39:00.714Z,12.23
2019-04-14T08:41:30.489Z,10.82
2019-04-14T08:44:15.359Z,10.85
2019-04-14T08:46:45.135Z,10.60
2019-04-14T08:49:17.911Z,10.20
2019-04-14T08:51:50.814Z,9.53
2019-04-14T08:54:20.572Z,10.28
2019-04-14T08:56:50.352Z,10.00
2019-04-14T08:59:26.254Z,9.68
2019-04-14T09:01:56.044Z,9.50
2019-04-14T09:04:31.536Z,9.55
2019-04-14T09:07:17.777Z,9.73
2019-04-14T09:09:50.326Z,9.65
2019-04-14T09:12:20.107Z,9.55
2019-04-14T09:14:56.763Z,9.90
2019-04-14T09:17:18.088Z,10.00
2019-04-14T09:19:46.181Z,9.98
2019-04-14T09:22:14.314Z,9.48
2019-04-14T09:24:42.467Z,9.13
2019-04-14T09:27:10.590Z,9.80
2019-04-14T09:29:38.901Z,9.80
2019-04-14T09:32:08.815Z,9.95
2019-04-14T09:34:37.026Z,9.58
2019-04-14T09:37:05.162Z,10.05
2019-04-14T09:39:33.304Z,9.65
2019-04-14T09:42:01.756Z,9.45
2019-04-14T09:44:29.898Z,9.00
2019-04-14T09:46:58.027Z,9.33
2019-04-14T09:49:26.147Z,9.50
2019-04-14T09:51:54.269Z,9.93
2019-04-14T09:54:22.472Z,9.55
2019-04-14T09:56:50.614Z,9.88
2019-04-14T09:59:18.732Z,9.25
2019-04-14T10:01:46.930Z,8.95
2019-04-14T10:04:15.075Z,9.70
2019-04-14T10:06:43.257Z,9.90
2019-04-14T10:09:11.628Z,8.55
2019-04-14T10:11:48.418Z,9.33
2019-04-14T10:14:09.817Z,9.45
2019-04-14T10:16:37.985Z,9.25
2019-04-14T10:19:06.146Z,9.55
2019-04-14T10:21:34.335Z,9.48
2019-04-14T10:24:02.482Z,9.50
2019-04-14T10:26:30.661Z,9.58
2019-04-14T10:28:58.859Z,9.35
2019-04-14T10:31:26.973Z,9.85
2019-04-14T10:33:55.116Z,9.85
2019-04-14T10:36:23.247Z,9.10
2019-04-14T10:38:51.373Z,8.80
2019-04-14T10:41:19.511Z,8.83
2019-04-14T10:43:47.624Z,8.38
2019-04-14T10:46:15.776Z,8.70
2019-04-14T10:48:43.933Z,9.00
2019-04-14T10:51:12.114Z,8.65
2019-04-14T10:53:40.295Z,8.73
2019-04-14T10:56:08.415Z,8.65
2019-04-14T10:58:36.555Z,8.85
2019-04-14T11:01:04.802Z,19.55
2019-04-14T11:03:32.922Z,15.85
2019-04-14T11:06:02.719Z,19.42
2019-04-14T11:08:30.911Z,16.80
2019-04-14T11:10:59.066Z,15.25
2019-04-14T11:13:27.188Z,15.23
2019-04-14T11:15:55.335Z,16.85
2019-04-14T11:18:23.475Z,17.40
2019-04-14T11:20:51.706Z,18.17
2019-04-14T11:23:19.878Z,26.80
2019-04-14T11:25:48.003Z,22.90
2019-04-14T11:28:16.127Z,26.37
2019-04-14T11:30:44.421Z,22.65
2019-04-14T11:33:14.173Z,51.85
2019-04-14T11:35:43.951Z,117.70
2019-04-14T11:38:25.726Z,370.30
2019-04-14T11:40:58.566Z,278.67
2019-04-14T11:43:26.709Z,223.22
2019-04-14T11:45:54.926Z,166.75
2019-04-14T11:48:23.063Z,146.62
2019-04-14T11:50:51.409Z,151.93
2019-04-14T11:53:19.756Z,139.40
2019-04-14T11:55:47.904Z,137.45
2019-04-14T11:58:16.026Z,116.55
2019-04-14T12:01:01.348Z,124.10
2019-04-14T12:03:37.164Z,124.18
2019-04-14T12:06:07.093Z,112.40
2019-04-14T12:08:45.439Z,112.85
2019-04-14T12:11:12.587Z,105.95
2019-04-14T12:13:40.790Z,99.30
2019-04-14T12:16:09.012Z,87.40
2019-04-14T12:18:37.171Z,88.25
2019-04-14T12:21:05.390Z,108.75
2019-04-14T12:23:33.531Z,102.53
2019-04-14T12:26:05.721Z,99.77
2019-04-14T12:28:31.789Z,96.70
2019-04-14T12:31:00.022Z,96.00
2019-04-14T12:33:28.214Z,84.42
2019-04-14T12:35:56.358Z,85.72
2019-04-14T12:38:24.556Z,89.28
2019-04-14T12:40:55.932Z,64.70
2019-04-14T12:43:36.576Z,50.08
2019-04-14T12:46:12.190Z,44.88
2019-04-14T12:48:42.012Z,37.53
2019-04-14T12:51:11.756Z,39.92
2019-04-14T12:53:39.902Z,38.75
2019-04-14T12:56:08.238Z,37.67
2019-04-14T12:58:50.323Z,35.45
2019-04-14T13:01:20.080Z,35.08
2019-04-14T13:03:48.283Z,32.08
2019-04-14T13:06:16.414Z,32.88
2019-04-14T13:08:44.628Z,32.08
2019-04-14T13:11:12.741Z,32.15
2019-04-14T13:13:40.951Z,30.95
2019-04-14T13:16:09.251Z,31.48
2019-04-14T13:18:37.379Z,31.27
2019-04-14T13:21:05.486Z,32.93
2019-04-14T13:23:33.631Z,31.27
2019-04-14T13:26:01.808Z,30.90
2019-04-14T13:28:29.995Z,29.98
2019-04-14T13:30:58.128Z,29.27
2019-04-14T13:33:26.339Z,30.95
2019-04-14T13:35:54.524Z,30.08
2019-04-14T13:38:22.636Z,30.75
2019-04-14T13:40:50.803Z,29.30
2019-04-14T13:43:19.092Z,29.90
2019-04-14T13:45:47.406Z,28.17
2019-04-14T13:48:15.551Z,25.68
2019-04-14T13:50:43.782Z,25.62
2019-04-14T13:53:11.977Z,28.00
2019-04-14T13:55:40.094Z,27.70
2019-04-14T13:58:08.224Z,26.93
2019-04-14T14:00:36.375Z,25.25
2019-04-14T14:03:04.570Z,26.05
2019-04-14T14:05:32.711Z,25.17
2019-04-14T14:08:00.820Z,25.12
2019-04-14T14:10:29.772Z,25.15
2019-04-14T14:12:59.535Z,24.87
2019-04-14T14:15:29.330Z,25.27
2019-04-14T14:18:15.634Z,22.80
2019-04-14T14:21:00.884Z,24.77
2019-04-14T14:23:30.722Z,25.65
2019-04-14T14:26:00.524Z,23.00
2019-04-14T14:28:28.712Z,23.45
2019-04-14T14:30:56.863Z,24.65
2019-04-14T14:33:24.978Z,24.77
2019-04-14T14:35:53.206Z,24.50
2019-04-14T14:38:21.613Z,21.15
2019-04-14T14:40:49.928Z,20.27
2019-04-14T14:43:21.013Z,19.17
2019-04-14T14:45:50.841Z,21.02
2019-04-14T14:48:23.452Z,43.40
2019-04-14T14:50:56.116Z,38.13
2019-04-14T14:53:24.383Z,32.13
2019-04-14T14:55:52.535Z,26.45
2019-04-14T14:58:22.235Z,23.27
2019-04-14T15:00:50.437Z,22.62
2019-04-14T15:03:18.654Z,24.50
2019-04-14T15:05:46.776Z,23.65
2019-04-14T15:08:14.982Z,23.32
2019-04-14T15:10:43.127Z,23.02
2019-04-14T15:13:11.335Z,22.35
2019-04-14T15:15:39.458Z,23.22
2019-04-14T15:18:07.676Z,21.12
2019-04-14T15:20:36.160Z,19.10
2019-04-14T15:23:04.416Z,22.27
2019-04-14T15:25:32.530Z,22.13
2019-04-14T15:28:01.085Z,20.65
2019-04-14T15:30:29.299Z,22.30
2019-04-14T15:32:57.432Z,20.85
2019-04-14T15:35:25.645Z,19.87
2019-04-14T15:37:53.783Z,20.82
2019-04-14T15:40:22.112Z,22.62
2019-04-14T15:42:50.254Z,21.82
2019-04-14T15:45:18.448Z,20.72
2019-04-14T15:47:46.621Z,18.37
2019-04-14T15:50:14.829Z,20.43
2019-04-14T15:52:42.959Z,21.40
2019-04-14T15:55:11.538Z,19.42
2019-04-14T15:57:41.395Z,20.25
2019-04-14T16:00:28.364Z,19.60
2019-04-14T16:02:58.157Z,20.68
2019-04-14T16:05:43.132Z,20.08
2019-04-14T16:08:12.973Z,19.55
2019-04-14T16:10:48.544Z,19.77
2019-04-14T16:13:27.406Z,20.05
2019-04-14T16:15:57.236Z,19.23
2019-04-14T16:18:39.028Z,20.50
2019-04-14T16:21:07.137Z,19.67
2019-04-14T16:23:35.288Z,19.48
2019-04-14T16:26:22.927Z,18.60
2019-04-14T16:28:58.839Z,20.75
2019-04-14T16:31:45.115Z,19.12
2019-04-14T16:34:27.220Z,19.90
2019-04-14T16:36:55.931Z,18.90
2019-04-14T16:39:24.128Z,19.15
2019-04-14T16:41:52.244Z,19.27
2019-04-14T16:44:20.408Z,18.75
2019-04-14T16:46:48.546Z,19.02
2019-04-14T16:49:16.779Z,19.12
2019-04-14T16:51:46.898Z,18.60
2019-04-14T16:54:16.814Z,18.90
2019-04-14T16:56:55.438Z,18.85
2019-04-14T16:59:23.571Z,18.25
2019-04-14T17:01:51.820Z,18.42
2019-04-14T17:04:20.030Z,18.52
2019-04-14T17:06:48.159Z,18.00
2019-04-14T17:09:16.340Z,18.17
2019-04-14T17:11:44.481Z,18.40
2019-04-14T17:14:17.057Z,17.95
2019-04-14T17:17:02.203Z,18.12
2019-04-14T17:19:31.989Z,17.80
2019-04-14T17:22:17.106Z,17.00
2019-04-14T17:25:05.535Z,17.42
2019-04-14T17:27:44.003Z,16.67
2019-04-14T17:30:13.931Z,16.93
2019-04-14T17:32:46.981Z,17.23
2019-04-14T17:35:19.350Z,18.30
2019-04-14T17:37:49.169Z,16.82
2019-04-14T17:40:35.256Z,17.82
2019-04-14T17:43:05.064Z,16.60
2019-04-14T17:45:50.651Z,16.57
2019-04-14T17:48:23.684Z,17.00
2019-04-14T17:50:53.475Z,16.73
2019-04-14T17:53:26.251Z,17.30
2019-04-14T17:55:55.995Z,17.20
2019-04-14T17:58:25.764Z,17.05
2019-04-14T18:00:55.627Z,17.27
2019-04-14T18:03:37.235Z,17.07
2019-04-14T18:06:13.022Z,17.62
2019-04-14T18:08:59.008Z,17.40
2019-04-14T18:11:43.742Z,17.10
2019-04-14T18:14:16.056Z,16.77
2019-04-14T18:17:02.022Z,16.87
2019-04-14T18:19:31.758Z,16.93
2019-04-14T18:21:59.889Z,17.15
2019-04-14T18:24:28.002Z,17.02
2019-04-14T18:26:56.140Z,17.75
2019-04-14T18:29:25.947Z,16.87
2019-04-14T18:31:55.807Z,16.40
2019-04-14T18:34:31.392Z,17.23
2019-04-14T18:37:03.954Z,16.60
2019-04-14T18:39:50.105Z,17.23
2019-04-14T18:42:19.908Z,16.80
2019-04-14T18:44:49.698Z,16.62
2019-04-14T18:47:25.758Z,16.93
2019-04-14T18:50:04.597Z,16.52
2019-04-14T18:52:37.113Z,16.12
2019-04-14T18:55:25.747Z,16.05
2019-04-14T18:58:01.143Z,16.15
2019-04-14T19:00:34.280Z,17.57
2019-04-14T19:03:02.594Z,16.02
2019-04-14T19:05:31.220Z,15.63
2019-04-14T19:07:59.444Z,13.93
2019-04-14T19:10:27.865Z,14.30
2019-04-14T19:13:03.626Z,13.58
2019-04-14T19:15:33.437Z,13.20
2019-04-14T19:18:03.445Z,12.20
2019-04-14T19:20:31.793Z,12.10
2019-04-14T19:23:00.215Z,12.47
2019-04-14T19:25:28.464Z,12.13
2019-04-14T19:27:56.571Z,12.95
2019-04-14T19:30:24.894Z,12.10
2019-04-14T19:32:53.085Z,12.00
2019-04-14T19:35:21.322Z,12.28
2019-04-14T19:37:49.455Z,11.80
2019-04-14T19:40:17.647Z,11.85
2019-04-14T19:42:45.955Z,11.25
2019-04-14T19:45:14.165Z,12.05
2019-04-14T19:47:42.277Z,11.80
2019-04-14T19:50:10.583Z,12.00
2019-04-14T19:52:38.778Z,11.75
2019-04-14T19:55:19.563Z,11.90
2019-04-14T19:57:36.833Z,11.00
2019-04-14T20:00:06.329Z,11.40
2019-04-14T20:02:34.440Z,11.83
2019-04-14T20:05:02.671Z,11.93
2019-04-14T20:07:30.845Z,11.60
2019-04-14T20:09:59.064Z,10.75
2019-04-14T20:12:27.316Z,10.88
2019-04-14T20:14:55.444Z,10.88
2019-04-14T20:17:28.057Z,11.40
2019-04-14T20:20:03.525Z,10.65
2019-04-14T20:22:33.305Z,10.48
2019-04-14T20:25:08.960Z,11.05
2019-04-14T20:27:41.519Z,10.95
2019-04-14T20:30:11.375Z,11.03
2019-04-14T20:32:44.223Z,10.93
2019-04-14T20:35:12.521Z,10.38
2019-04-14T20:37:40.891Z,11.30
2019-04-14T20:40:09.300Z,11.12
2019-04-14T20:42:37.478Z,11.33
2019-04-14T20:45:08.306Z,11.25
2019-04-14T20:47:36.684Z,10.60
2019-04-14T20:50:06.310Z,10.48
2019-04-14T20:52:34.735Z,10.58
2019-04-14T20:55:03.485Z,10.90
2019-04-14T20:57:31.633Z,10.88
2019-04-14T20:59:59.901Z,10.25
2019-04-14T21:02:29.822Z,10.50
2019-04-14T21:05:08.741Z,10.70
2019-04-14T21:07:38.528Z,11.22
2019-04-14T21:10:10.861Z,10.80
2019-04-14T21:12:55.526Z,10.55
2019-04-14T21:15:37.357Z,10.28
2019-04-14T21:18:07.217Z,11.00
2019-04-14T21:20:52.461Z,10.40
2019-04-14T21:23:40.586Z,10.53
2019-04-14T21:26:10.333Z,10.00
2019-04-14T21:28:56.683Z,9.68
2019-04-14T21:31:29.304Z,10.63
2019-04-14T21:33:59.116Z,10.93
2019-04-14T21:36:28.883Z,10.50
2019-04-14T21:38:58.767Z,10.45
2019-04-14T21:41:28.527Z,10.50
2019-04-14T21:43:56.671Z,10.18
2019-04-14T21:46:24.813Z,10.28
2019-04-14T21:48:52.914Z,10.25
2019-04-14T21:51:22.694Z,10.20
2019-04-14T21:53:50.822Z,10.15
2019-04-14T21:56:19.063Z,10.10
2019-04-14T21:58:48.813Z,9.88
2019-04-14T22:01:36.735Z,10.08
2019-04-14T22:04:23.318Z,10.05
2019-04-14T22:06:53.153Z,10.00
2019-04-14T22:09:22.952Z,10.50
2019-04-14T22:11:51.251Z,9.75
2019-04-14T22:14:19.562Z,9.95
2019-04-14T22:16:47.692Z,9.98
2019-04-14T22:19:16.045Z,10.15
2019-04-14T22:21:44.189Z,9.73
2019-04-14T22:24:12.359Z,9.90
2019-04-14T22:26:40.564Z,9.90
2019-04-14T22:29:08.818Z,9.78
2019-04-14T22:31:37.191Z,9.15
2019-04-14T22:34:05.276Z,9.07
2019-04-14T22:36:33.398Z,9.55
2019-04-14T22:39:01.584Z,9.43
2019-04-14T22:41:29.830Z,9.28
2019-04-14T22:43:58.038Z,9.20
2019-04-14T22:46:26.162Z,9.55
2019-04-14T22:48:54.267Z,9.55
2019-04-14T22:51:22.402Z,9.70
2019-04-14T22:53:50.550Z,9.10
2019-04-14T22:56:18.743Z,9.05
2019-04-14T22:58:46.852Z,8.80
2019-04-14T23:01:16.741Z,9.40
2019-04-14T23:03:49.282Z,9.40
2019-04-14T23:06:31.354Z,9.35
2019-04-14T23:09:01.123Z,9.00
2019-04-14T23:11:36.543Z,9.18
2019-04-14T23:14:22.894Z,9.13
2019-04-14T23:16:58.736Z,9.35
2019-04-14T23:19:37.533Z,9.13
2019-04-14T23:22:18.111Z,8.78
2019-04-14T23:24:49.064Z,8.98
2019-04-14T23:27:17.365Z,8.88
2019-04-14T23:29:45.542Z,8.73
2019-04-14T23:32:13.732Z,9.20
2019-04-14T23:34:41.831Z,9.45
2019-04-14T23:37:09.970Z,9.48
2019-04-14T23:39:38.075Z,9.25
2019-04-14T23:42:06.404Z,9.00
2019-04-14T23:44:34.587Z,9.43
2019-04-14T23:47:04.328Z,8.98
2019-04-14T23:49:32.578Z,9.33
2019-04-14T23:52:00.759Z,8.85
2019-04-14T23:54:28.881Z,9.05
2019-04-14T23:57:05.245Z,8.48
2019-04-14T23:59:26.860Z,9.05
